createdAt,value
2023-05-09T00:01:24.704Z,101814.97
2023-05-09T00:03:52.366Z,101800.63
2023-05-09T00:06:19.886Z,101810.22
2023-05-09T00:08:46.545Z,101791.38
2023-05-09T00:11:13.183Z,101805.31
2023-05-09T00:13:40.090Z,101804.31
2023-05-09T00:16:07.135Z,101779.44
2023-05-09T00:18:34.126Z,101779.59
2023-05-09T00:21:04.057Z,101778.59
2023-05-09T00:23:30.937Z,101789.16
2023-05-09T00:25:58.130Z,101789.84
2023-05-09T00:28:24.786Z,101765.72
2023-05-09T00:30:51.322Z,101760.34
2023-05-09T00:33:19.390Z,101752.91
2023-05-09T00:35:46.408Z,101756.28
2023-05-09T00:38:13.549Z,101742.81
2023-05-09T00:40:40.346Z,101748.72
2023-05-09T00:43:07.019Z,101767.56
2023-05-09T00:45:34.002Z,101753.22
2023-05-09T00:48:00.707Z,101742.50
2023-05-09T00:50:27.490Z,101752.81
2023-05-09T00:52:54.155Z,101736.59
2023-05-09T00:55:21.510Z,101735.19
2023-05-09T00:57:48.035Z,101720.28
2023-05-09T01:00:14.993Z,101725.06
2023-05-09T01:02:43.920Z,101732.34
2023-05-09T01:05:12.106Z,101713.00
2023-05-09T01:07:47.730Z,101725.50
2023-05-09T01:10:35.237Z,101714.94
2023-05-09T01:13:09.184Z,101699.19
2023-05-09T01:16:17.839Z,101711.81
2023-05-09T01:18:52.018Z,101701.72
2023-05-09T01:21:24.154Z,101708.59
2023-05-09T01:24:09.612Z,101696.13
2023-05-09T01:26:36.180Z,101700.03
2023-05-09T01:29:21.532Z,101705.38
2023-05-09T01:31:49.322Z,101685.28
2023-05-09T01:34:18.121Z,101689.66
2023-05-09T01:36:47.445Z,101675.44
2023-05-09T01:39:14.978Z,101682.22
2023-05-09T01:41:41.583Z,101674.19
2023-05-09T01:44:11.559Z,101677.53
2023-05-09T01:46:39.455Z,101669.13
2023-05-09T01:49:09.099Z,101675.31
2023-05-09T01:51:37.553Z,101672.75
2023-05-09T01:54:06.073Z,101678.38
2023-05-09T01:56:33.375Z,101668.41
2023-05-09T01:59:02.273Z,101679.09
2023-05-09T02:01:30.441Z,101629.78
2023-05-09T02:03:57.494Z,101636.34
2023-05-09T02:06:24.795Z,101664.19
2023-05-09T02:08:51.828Z,101676.66
2023-05-09T02:11:18.620Z,101660.91
2023-05-09T02:13:45.491Z,101665.13
2023-05-09T02:16:12.566Z,101648.28
2023-05-09T02:18:39.241Z,101655.56
2023-05-09T02:21:06.476Z,101666.22
2023-05-09T02:23:33.323Z,101663.16
2023-05-09T02:26:00.533Z,101656.97
2023-05-09T02:28:28.453Z,101635.19
2023-05-09T02:30:57.210Z,101652.72
2023-05-09T02:33:24.458Z,101638.97
2023-05-09T02:35:51.971Z,101610.34
2023-05-09T02:38:19.333Z,101630.38
2023-05-09T02:40:47.638Z,101649.06
2023-05-09T02:43:15.324Z,101636.69
2023-05-09T02:45:42.296Z,101657.47
2023-05-09T02:48:09.463Z,101630.53
2023-05-09T02:50:38.310Z,101653.53
2023-05-09T02:53:05.625Z,101589.22
2023-05-09T02:55:32.202Z,101632.56
2023-05-09T02:58:12.112Z,101633.53
2023-05-09T03:00:40.108Z,101647.34
2023-05-09T03:03:06.938Z,101631.06
2023-05-09T03:05:33.624Z,101614.00
2023-05-09T03:08:00.360Z,101619.06
2023-05-09T03:10:26.996Z,101621.44
2023-05-09T03:12:53.610Z,101612.03
2023-05-09T03:15:21.168Z,101603.19
2023-05-09T03:17:48.007Z,101590.28
2023-05-09T03:20:15.853Z,101614.16
2023-05-09T03:22:42.819Z,101581.75
2023-05-09T03:25:09.635Z,101596.03
2023-05-09T03:27:36.235Z,101588.19
2023-05-09T03:30:02.917Z,101585.09
2023-05-09T03:32:29.881Z,101595.34
2023-05-09T03:34:57.259Z,101588.84
2023-05-09T03:37:26.220Z,101597.56
2023-05-09T03:39:53.903Z,101597.84
2023-05-09T03:42:20.509Z,101568.97
2023-05-09T03:44:47.544Z,101595.50
2023-05-09T03:47:14.168Z,101587.47
2023-05-09T03:49:41.554Z,101574.41
2023-05-09T03:52:08.198Z,101573.97
2023-05-09T03:54:34.947Z,101567.69
2023-05-09T03:57:01.619Z,101571.44
2023-05-09T03:59:28.201Z,101563.03
2023-05-09T04:01:55.021Z,101572.56
2023-05-09T04:04:21.858Z,101564.56
2023-05-09T04:06:48.608Z,101558.69
2023-05-09T04:09:15.591Z,101566.25
2023-05-09T04:11:42.213Z,101562.19
2023-05-09T04:14:08.916Z,101548.16
2023-05-09T04:32:28.623Z,101526.53
2023-05-09T04:34:55.267Z,101556.69
2023-05-09T04:37:22.036Z,101550.06
2023-05-09T04:39:48.888Z,101546.91
2023-05-09T04:42:15.700Z,101543.25
2023-05-09T04:44:42.388Z,101487.69
2023-05-09T04:47:09.324Z,101504.91
2023-05-09T04:49:35.885Z,101519.91
2023-05-09T04:52:02.568Z,101512.56
2023-05-09T04:54:29.403Z,101537.78
2023-05-09T04:57:03.219Z,101534.41
2023-05-09T04:59:36.781Z,101537.31
2023-05-09T05:02:03.751Z,101531.00
2023-05-09T05:04:30.588Z,101534.88
2023-05-09T05:06:57.409Z,101525.31
2023-05-09T05:09:24.338Z,101469.53
2023-05-09T05:11:59.967Z,101532.44
2023-05-09T05:14:27.783Z,101511.66
2023-05-09T05:16:54.572Z,101524.94
2023-05-09T05:19:21.160Z,101515.69
2023-05-09T05:21:47.843Z,101517.53
2023-05-09T05:24:14.413Z,101519.06
2023-05-09T05:26:40.989Z,101515.38
2023-05-09T05:29:07.831Z,101515.09
2023-05-09T05:31:34.446Z,101512.25
2023-05-09T05:34:01.041Z,101516.44
2023-05-09T05:36:27.805Z,101514.47
2023-05-09T05:38:54.412Z,101502.72
2023-05-09T05:41:21.238Z,101506.06
2023-05-09T05:43:47.970Z,101495.69
2023-05-09T05:46:14.586Z,101463.16
2023-05-09T05:48:41.220Z,101503.44
2023-05-09T05:51:08.058Z,101423.19
2023-05-09T05:53:34.971Z,101492.97
2023-05-09T05:56:02.066Z,101488.16
2023-05-09T05:58:28.719Z,101463.31
2023-05-09T06:00:55.404Z,101470.09
2023-05-09T06:03:22.078Z,101482.16
2023-05-09T06:05:49.209Z,101415.06
2023-05-09T06:08:15.914Z,101479.53
2023-05-09T06:10:42.542Z,101472.50
2023-05-09T06:13:09.344Z,101448.00
2023-05-09T06:15:35.954Z,101440.63
2023-05-09T06:18:02.688Z,101456.78
2023-05-09T06:20:29.434Z,101450.38
2023-05-09T06:22:55.997Z,101457.09
2023-05-09T06:25:22.668Z,101458.91
2023-05-09T06:27:49.339Z,101436.09
2023-05-09T06:30:25.763Z,101452.06
2023-05-09T06:32:54.050Z,101457.13
2023-05-09T06:35:20.898Z,101443.25
2023-05-09T06:37:48.874Z,101445.44
2023-05-09T06:40:16.585Z,101436.72
2023-05-09T06:42:43.378Z,101448.63
2023-05-09T06:45:10.717Z,101409.06
2023-05-09T06:47:37.650Z,101427.84
2023-05-09T06:50:04.499Z,101433.09
2023-05-09T06:52:31.216Z,101417.63
2023-05-09T06:54:58.022Z,101432.09
2023-05-09T06:57:24.746Z,101405.75
2023-05-09T06:59:51.324Z,101422.69
2023-05-09T07:02:18.181Z,101410.28
2023-05-09T07:04:44.847Z,101416.16
2023-05-09T07:07:11.610Z,101420.88
2023-05-09T07:09:38.616Z,101402.28
2023-05-09T07:12:05.622Z,101402.94
2023-05-09T07:14:32.251Z,101412.34
2023-05-09T07:17:10.301Z,101396.44
2023-05-09T07:19:45.308Z,101359.72
2023-05-09T07:22:13.641Z,101394.47
2023-05-09T07:24:40.310Z,101399.06
2023-05-09T07:27:06.991Z,101380.56
2023-05-09T07:29:33.874Z,101374.91
2023-05-09T07:32:00.710Z,101395.41
2023-05-09T07:34:27.599Z,101391.38
2023-05-09T07:36:54.476Z,101379.34
2023-05-09T07:39:21.154Z,101356.53
2023-05-09T07:41:48.768Z,101378.72
2023-05-09T07:44:16.033Z,101372.03
2023-05-09T07:46:42.945Z,101380.75
2023-05-09T07:49:09.762Z,101347.22
2023-05-09T07:51:36.814Z,101361.31
2023-05-09T07:54:03.743Z,101367.19
2023-05-09T07:56:30.536Z,101361.84
2023-05-09T07:58:57.391Z,101365.34
2023-05-09T08:01:24.086Z,101289.06
2023-05-09T08:03:50.913Z,101353.31
2023-05-09T08:06:17.860Z,101346.44
2023-05-09T08:08:44.504Z,101355.03
2023-05-09T08:11:11.102Z,101323.53
2023-05-09T08:13:37.932Z,101334.44
2023-05-09T08:16:04.980Z,101330.28
2023-05-09T08:18:31.703Z,101345.03
2023-05-09T08:20:59.847Z,101347.03
2023-05-09T08:23:26.990Z,101343.03
2023-05-09T08:25:54.729Z,101338.50
2023-05-09T08:28:24.387Z,101335.00
2023-05-09T08:30:52.359Z,101248.34
2023-05-09T08:33:19.234Z,101334.31
2023-05-09T08:35:46.268Z,101337.84
2023-05-09T08:38:12.905Z,101316.88
2023-05-09T08:40:41.276Z,101315.53
2023-05-09T08:43:08.930Z,101306.50
2023-05-09T08:45:46.397Z,101307.28
2023-05-09T08:48:15.954Z,101273.78
2023-05-09T08:50:43.728Z,101309.28
2023-05-09T08:53:11.900Z,101293.66
2023-05-09T08:55:39.166Z,101289.59
2023-05-09T08:58:06.424Z,101289.34
2023-05-09T09:00:33.887Z,101290.47
2023-05-09T09:03:04.107Z,101274.72
2023-05-09T09:05:41.169Z,101293.13
2023-05-09T09:08:09.453Z,101283.72
2023-05-09T09:10:41.517Z,101275.00
2023-05-09T09:13:10.101Z,101249.56
2023-05-09T09:15:38.621Z,101271.63
2023-05-09T09:18:11.653Z,101270.34
2023-05-09T09:20:45.171Z,101261.59
2023-05-09T09:23:13.003Z,101250.47
2023-05-09T09:25:39.644Z,101252.56
2023-05-09T09:28:06.518Z,101252.97
2023-05-09T09:30:33.268Z,101250.28
2023-05-09T09:33:00.718Z,101252.34
2023-05-09T09:35:27.596Z,101245.81
2023-05-09T09:38:00.186Z,101256.34
2023-05-09T09:40:27.124Z,101254.50
2023-05-09T09:42:53.969Z,101203.31
2023-05-09T09:45:20.871Z,101242.91
2023-05-09T09:47:50.059Z,101250.56
2023-05-09T09:50:23.387Z,101251.50
2023-05-09T09:52:51.611Z,101252.81
2023-05-09T09:55:19.238Z,101236.63
2023-05-09T09:57:48.142Z,101245.63
2023-05-09T10:00:17.321Z,101241.22
2023-05-09T10:02:52.458Z,101236.75
2023-05-09T10:05:24.438Z,101229.19
2023-05-09T10:08:03.233Z,101223.19
2023-05-09T10:10:34.788Z,101227.25
2023-05-09T10:13:10.770Z,101209.31
2023-05-09T10:15:52.172Z,101225.94
2023-05-09T10:18:25.261Z,101219.28
2023-05-09T10:20:53.346Z,101217.63
2023-05-09T10:23:20.916Z,101208.88
2023-05-09T10:25:52.567Z,101226.50
2023-05-09T10:28:27.951Z,101197.19
2023-05-09T10:30:59.673Z,101221.03
2023-05-09T10:33:41.918Z,101223.81
2023-05-09T10:36:09.247Z,101209.44
2023-05-09T10:38:37.283Z,101208.13
2023-05-09T10:41:05.245Z,101184.13
2023-05-09T10:43:34.742Z,101190.69
2023-05-09T10:46:04.614Z,101192.53
2023-05-09T10:48:34.541Z,101179.66
2023-05-09T10:51:02.391Z,101205.53
2023-05-09T10:53:56.229Z,101202.25
2023-05-09T10:56:27.483Z,101198.53
2023-05-09T10:58:54.724Z,101181.59
2023-05-09T11:01:32.958Z,101198.38
2023-05-09T11:04:00.278Z,101159.06
2023-05-09T11:06:44.089Z,101190.75
2023-05-09T11:09:34.233Z,101167.88
2023-05-09T11:12:10.101Z,101190.22
2023-05-09T11:14:44.949Z,101179.03
2023-05-09T11:17:28.385Z,101182.00
2023-05-09T11:20:05.649Z,101177.19
2023-05-09T11:22:43.165Z,101186.81
2023-05-09T11:25:12.703Z,101177.78
2023-05-09T11:27:48.651Z,101173.03
2023-05-09T11:30:17.721Z,101171.94
2023-05-09T11:32:51.837Z,101163.97
2023-05-09T11:35:21.017Z,101129.50
2023-05-09T11:38:04.952Z,101153.19
2023-05-09T11:40:33.984Z,101129.47
2023-05-09T11:43:01.569Z,101130.00
2023-05-09T11:45:33.202Z,101152.38
2023-05-09T11:48:01.165Z,101143.06
2023-05-09T11:50:28.677Z,101114.47
2023-05-09T11:52:55.353Z,101128.41
2023-05-09T11:55:22.876Z,101132.63
2023-05-09T11:57:51.900Z,101124.78
2023-05-09T12:00:22.851Z,101123.94
2023-05-09T12:02:51.210Z,101116.06
2023-05-09T12:05:20.002Z,101110.19
2023-05-09T12:07:47.517Z,101080.25
2023-05-09T12:10:21.583Z,101101.88
2023-05-09T12:12:50.672Z,101078.53
2023-05-09T12:15:18.139Z,101083.75
2023-05-09T12:17:47.255Z,101078.22
2023-05-09T12:20:15.142Z,101065.38
2023-05-09T12:22:45.245Z,101072.53
2023-05-09T12:25:12.470Z,101056.78
2023-05-09T12:27:42.605Z,101033.50
2023-05-09T12:30:14.182Z,101055.84
2023-05-09T12:32:41.911Z,101049.81
2023-05-09T12:35:10.976Z,101066.00
2023-05-09T12:37:37.988Z,101035.97
2023-05-09T12:40:06.314Z,101059.34
2023-05-09T12:42:34.870Z,101065.13
2023-05-09T12:45:03.172Z,101039.06
2023-05-09T12:47:31.951Z,101023.25
2023-05-09T12:50:03.761Z,101055.94
2023-05-09T12:53:01.426Z,101027.66
2023-05-09T12:55:31.205Z,101014.75
2023-05-09T12:58:03.536Z,101037.63
2023-05-09T13:00:44.146Z,101035.59
2023-05-09T13:03:25.252Z,101036.88
2023-05-09T13:06:02.026Z,101033.72
2023-05-09T13:08:29.431Z,101035.19
2023-05-09T13:11:04.462Z,101040.16
2023-05-09T13:13:35.298Z,101047.16
2023-05-09T13:16:04.301Z,101028.84
2023-05-09T13:18:30.875Z,101030.28
2023-05-09T13:20:57.576Z,101033.34
2023-05-09T13:23:24.155Z,101032.72
2023-05-09T13:25:51.602Z,101035.81
2023-05-09T13:28:18.871Z,101027.81
2023-05-09T13:30:45.879Z,101009.44
2023-05-09T13:33:24.474Z,101030.81
2023-05-09T13:35:51.991Z,101021.78
2023-05-09T13:38:18.705Z,101032.06
2023-05-09T13:40:45.294Z,101025.72
2023-05-09T13:43:12.324Z,101031.50
2023-05-09T13:45:39.532Z,101026.50
2023-05-09T13:48:06.453Z,101011.25
2023-05-09T13:50:35.360Z,101018.84
2023-05-09T13:53:01.982Z,100993.84
2023-05-09T13:55:29.647Z,101022.97
2023-05-09T13:57:56.725Z,101023.91
2023-05-09T14:00:26.519Z,101008.91
2023-05-09T14:02:53.315Z,101003.28
2023-05-09T14:05:20.133Z,101019.72
2023-05-09T14:07:47.479Z,100943.25
2023-05-09T14:10:14.331Z,101019.22
2023-05-09T14:12:44.273Z,101018.66
2023-05-09T14:15:11.332Z,100993.28
2023-05-09T14:17:38.157Z,100991.97
2023-05-09T14:20:05.599Z,100961.97
2023-05-09T14:22:32.672Z,100964.19
2023-05-09T14:24:59.224Z,100982.25
2023-05-09T14:27:26.306Z,100989.94
2023-05-09T14:29:53.246Z,100997.34
2023-05-09T14:32:19.910Z,100991.06
2023-05-09T14:34:49.608Z,100999.97
2023-05-09T14:37:16.436Z,100991.16
2023-05-09T14:39:45.168Z,100960.03
2023-05-09T14:42:14.254Z,100951.53
2023-05-09T14:44:41.958Z,100987.38
2023-05-09T14:47:09.861Z,100983.03
2023-05-09T14:49:37.988Z,100957.09
2023-05-09T14:52:04.798Z,100964.59
2023-05-09T14:54:31.665Z,100942.75
2023-05-09T14:56:59.678Z,100954.78
2023-05-09T14:59:26.327Z,100969.13
2023-05-09T15:01:52.999Z,100964.50
2023-05-09T15:04:19.723Z,100943.50
2023-05-09T15:06:46.356Z,100952.47
2023-05-09T15:09:13.107Z,100956.00
2023-05-09T15:11:47.587Z,100967.19
2023-05-09T15:14:15.368Z,100961.81
2023-05-09T15:16:42.468Z,100951.81
2023-05-09T15:19:09.085Z,100927.00
2023-05-09T15:21:35.961Z,100947.47
2023-05-09T15:24:03.573Z,100951.81
2023-05-09T15:26:30.291Z,100955.91
2023-05-09T15:28:56.910Z,100954.50
2023-05-09T15:31:25.025Z,100932.34
2023-05-09T15:33:51.900Z,100953.09
2023-05-09T15:36:18.564Z,100941.91
2023-05-09T15:38:49.816Z,100946.44
2023-05-09T15:41:16.875Z,100949.13
2023-05-09T15:43:43.660Z,100935.09
2023-05-09T15:46:10.668Z,100885.91
2023-05-09T15:48:37.284Z,100937.50
2023-05-09T15:51:04.212Z,100922.50
2023-05-09T15:53:32.130Z,100894.88
2023-05-09T15:55:58.856Z,100920.81
2023-05-09T15:58:25.536Z,100898.47
2023-05-09T16:00:52.458Z,100920.34
2023-05-09T16:03:19.426Z,100905.88
2023-05-09T16:05:46.332Z,100913.38
2023-05-09T16:08:13.136Z,100919.47
2023-05-09T16:10:40.507Z,100926.50
2023-05-09T16:13:07.884Z,100926.03
2023-05-09T16:15:35.338Z,100913.91
2023-05-09T16:18:02.115Z,100884.16
2023-05-09T16:20:28.857Z,100900.56
2023-05-09T16:22:55.922Z,100903.50
2023-05-09T16:25:22.768Z,100889.81
2023-05-09T16:27:49.425Z,100897.50
2023-05-09T16:30:16.833Z,100893.81
2023-05-09T16:32:43.752Z,100847.59
2023-05-09T16:35:10.570Z,100880.22
2023-05-09T16:37:37.576Z,100890.97
2023-05-09T16:40:04.878Z,100871.09
2023-05-09T16:42:31.728Z,100887.97
2023-05-09T16:44:58.549Z,100873.94
2023-05-09T16:47:25.205Z,100869.59
2023-05-09T16:49:51.832Z,100869.88
2023-05-09T16:52:18.643Z,100864.41
2023-05-09T16:54:45.373Z,100875.91
2023-05-09T16:57:13.295Z,100877.22
2023-05-09T16:59:40.378Z,100875.56
2023-05-09T17:02:08.539Z,100844.88
2023-05-09T17:04:37.489Z,100881.94
2023-05-09T17:07:05.021Z,100883.13
2023-05-09T17:09:32.281Z,100862.94
2023-05-09T17:11:59.047Z,100851.91
2023-05-09T17:14:26.939Z,100867.25
2023-05-09T17:16:53.996Z,100855.28
2023-05-09T17:19:23.376Z,100867.50
2023-05-09T17:21:50.222Z,100850.81
2023-05-09T17:24:17.389Z,100849.69
2023-05-09T17:26:44.135Z,100832.34
2023-05-09T17:29:10.935Z,100846.19
2023-05-09T17:31:37.778Z,100869.75
2023-05-09T17:34:05.534Z,100841.41
2023-05-09T17:36:33.713Z,100842.59
2023-05-09T17:39:00.904Z,100858.44
2023-05-09T17:41:27.719Z,100836.75
2023-05-09T17:43:57.339Z,100834.06
2023-05-09T17:46:24.566Z,100790.72
2023-05-09T17:48:51.361Z,100842.47
2023-05-09T17:51:18.288Z,100846.44
2023-05-09T17:53:44.960Z,100845.28
2023-05-09T17:56:11.675Z,100845.44
2023-05-09T17:58:38.509Z,100835.78
2023-05-09T18:01:05.739Z,100840.97
2023-05-09T18:03:33.003Z,100812.09
2023-05-09T18:06:02.841Z,100802.13
2023-05-09T18:09:45.974Z,100838.66
2023-05-09T18:12:12.748Z,100845.53
2023-05-09T18:14:39.685Z,100828.34
2023-05-09T18:17:06.440Z,100828.84
2023-05-09T18:19:33.908Z,100827.19
2023-05-09T18:22:00.512Z,100826.34
2023-05-09T18:24:27.336Z,100814.16
2023-05-09T18:26:54.093Z,100803.31
2023-05-09T18:29:20.709Z,100839.38
2023-05-09T18:31:47.410Z,100798.13
2023-05-09T18:34:14.070Z,100807.34
2023-05-09T18:36:40.593Z,100757.78
2023-05-09T18:39:08.866Z,100835.09
2023-05-09T18:41:35.611Z,100826.56
2023-05-09T18:44:02.230Z,100826.22
2023-05-09T18:46:31.757Z,100801.78
2023-05-09T18:48:58.992Z,100822.16
2023-05-09T18:51:26.278Z,100826.53
2023-05-09T18:53:53.510Z,100827.34
2023-05-09T18:56:23.175Z,100825.50
2023-05-09T18:58:50.263Z,100774.09
2023-05-09T19:01:18.376Z,100836.22
2023-05-09T19:03:46.238Z,100834.53
2023-05-09T19:06:14.090Z,100830.38
2023-05-09T19:08:42.511Z,100839.72
2023-05-09T19:11:09.971Z,100844.09
2023-05-09T19:13:38.476Z,100823.88
2023-05-09T19:16:07.086Z,100830.22
2023-05-09T19:18:34.720Z,100841.59
2023-05-09T19:21:02.279Z,100842.28
2023-05-09T19:23:29.917Z,100806.56
2023-05-09T19:25:56.752Z,100815.91
2023-05-09T19:28:23.497Z,100823.09
2023-05-09T19:30:50.528Z,100839.97
2023-05-09T19:33:17.820Z,100823.78
2023-05-09T19:35:44.592Z,100831.63
2023-05-09T19:38:12.072Z,100818.44
2023-05-09T19:40:41.784Z,100832.16
2023-05-09T19:43:08.406Z,100824.63
2023-05-09T19:45:35.105Z,100822.13
2023-05-09T19:48:02.158Z,100830.81
2023-05-09T19:50:28.877Z,100831.34
2023-05-09T19:52:55.641Z,100829.31
2023-05-09T19:55:23.082Z,100826.00
2023-05-09T19:57:49.645Z,100828.00
2023-05-09T20:00:17.144Z,100838.72
2023-05-09T20:02:44.158Z,100765.28
2023-05-09T20:05:10.818Z,100820.69
2023-05-09T20:07:37.604Z,100800.31
2023-05-09T20:10:04.515Z,100830.72
2023-05-09T20:12:31.387Z,100836.38
2023-05-09T20:14:58.151Z,100820.38
2023-05-09T20:17:25.064Z,100807.03
2023-05-09T20:19:51.713Z,100823.72
2023-05-09T20:22:18.449Z,100797.34
2023-05-09T20:24:45.235Z,100804.03
2023-05-09T20:27:12.870Z,100827.22
2023-05-09T20:29:39.695Z,100829.41
2023-05-09T20:32:06.727Z,100807.19
2023-05-09T20:34:33.377Z,100822.72
2023-05-09T20:37:00.131Z,100785.16
2023-05-09T20:39:26.927Z,100813.88
2023-05-09T20:41:55.547Z,100792.34
2023-05-09T20:44:22.299Z,100782.84
2023-05-09T20:46:49.204Z,100809.88
2023-05-09T20:49:16.001Z,100792.34
2023-05-09T20:51:42.767Z,100802.19
2023-05-09T20:54:09.434Z,100793.38
2023-05-09T20:56:36.103Z,100799.34
2023-05-09T20:59:04.314Z,100807.53
2023-05-09T21:01:32.473Z,100814.41
2023-05-09T21:03:59.390Z,100809.06
2023-05-09T21:06:26.173Z,100803.22
2023-05-09T21:08:52.841Z,100801.03
2023-05-09T21:11:19.456Z,100792.38
2023-05-09T21:13:46.114Z,100800.34
2023-05-09T21:16:12.759Z,100805.38
2023-05-09T21:18:39.369Z,100796.19
2023-05-09T21:21:08.317Z,100807.06
2023-05-09T21:23:35.007Z,100798.19
2023-05-09T21:26:02.475Z,100792.03
2023-05-09T21:28:29.573Z,100796.19
2023-05-09T21:30:56.359Z,100794.69
2023-05-09T21:33:23.184Z,100770.78
2023-05-09T21:35:49.927Z,100799.19
2023-05-09T21:38:16.775Z,100774.84
2023-05-09T21:40:43.350Z,100780.19
2023-05-09T21:43:10.180Z,100782.69
2023-05-09T21:45:36.857Z,100786.34
2023-05-09T21:48:03.690Z,100778.34
2023-05-09T21:50:30.520Z,100763.59
2023-05-09T21:52:57.317Z,100763.59
2023-05-09T21:55:23.986Z,100759.44
2023-05-09T21:57:50.708Z,100758.63
2023-05-09T22:00:20.990Z,100764.78
2023-05-09T22:02:47.871Z,100749.94
2023-05-09T22:05:14.631Z,100754.94
2023-05-09T22:07:41.249Z,100753.59
2023-05-09T22:10:08.413Z,100752.91
2023-05-09T22:12:35.053Z,100765.44
2023-05-09T22:15:01.988Z,100761.59
2023-05-09T22:17:28.639Z,100742.91
2023-05-09T22:19:55.345Z,100770.78
2023-05-09T22:22:22.020Z,100748.09
2023-05-09T22:24:49.768Z,100754.75
2023-05-09T22:27:16.416Z,100759.94
2023-05-09T22:29:43.068Z,100761.97
2023-05-09T22:32:09.758Z,100757.78
2023-05-09T22:34:36.585Z,100761.97
2023-05-09T22:37:03.637Z,100744.91
2023-05-09T22:39:30.910Z,100767.28
2023-05-09T22:41:57.608Z,100757.41
2023-05-09T22:44:24.314Z,100727.56
2023-05-09T22:46:50.920Z,100754.28
2023-05-09T22:49:17.751Z,100764.44
2023-05-09T22:51:44.348Z,100767.31
2023-05-09T22:54:11.003Z,100753.75
2023-05-09T22:56:37.594Z,100734.56
2023-05-09T22:59:04.620Z,100752.28
2023-05-09T23:01:31.461Z,100751.59
2023-05-09T23:03:58.192Z,100750.09
2023-05-09T23:06:24.887Z,100733.22
2023-05-09T23:08:51.428Z,100754.44
2023-05-09T23:11:18.166Z,100749.94
2023-05-09T23:13:44.852Z,100745.41
2023-05-09T23:16:11.526Z,100749.44
2023-05-09T23:18:38.350Z,100749.91
2023-05-09T23:21:05.016Z,100752.59
2023-05-09T23:23:31.660Z,100742.56
2023-05-09T23:25:58.524Z,100745.41
2023-05-09T23:28:25.391Z,100754.25
2023-05-09T23:30:53.621Z,100755.91
2023-05-09T23:33:20.701Z,100733.53
2023-05-09T23:35:48.162Z,100758.91
2023-05-09T23:38:14.817Z,100751.88
2023-05-09T23:40:44.850Z,100747.69
2023-05-09T23:43:12.668Z,100700.72
2023-05-09T23:45:39.300Z,100742.50
2023-05-09T23:48:06.012Z,100751.50
2023-05-09T23:50:32.723Z,100750.81
2023-05-09T23:52:59.298Z,100744.13
2023-05-09T23:55:25.870Z,100748.44
2023-05-09T23:57:52.577Z,100758.94
